createdAt,value
2023-01-10T00:04:57.878Z,86.18
2023-01-10T00:09:59.557Z,85.36
2023-01-10T00:15:01.237Z,85.98
2023-01-10T00:20:02.911Z,88.14
2023-01-10T00:25:05.177Z,89.95
2023-01-10T00:30:14.364Z,90.70
2023-01-10T00:35:15.994Z,91.02
2023-01-10T00:40:17.782Z,90.84
2023-01-10T00:45:20.009Z,90.18
2023-01-10T00:50:21.644Z,90.28
2023-01-10T00:55:23.308Z,90.52
2023-01-10T01:00:25.045Z,90.45
2023-01-10T01:05:27.323Z,89.47
2023-01-10T01:10:29.025Z,89.89
2023-01-10T01:15:30.768Z,90.00
2023-01-10T01:20:32.800Z,90.10
2023-01-10T01:25:34.915Z,89.54
2023-01-10T01:30:36.527Z,88.76
2023-01-10T01:35:38.114Z,88.63
2023-01-10T01:40:41.582Z,88.89
2023-01-10T01:45:43.372Z,89.24
2023-01-10T01:51:05.311Z,89.57
2023-01-10T01:56:16.569Z,88.72
2023-01-10T02:01:19.040Z,91.25
2023-01-10T02:06:23.742Z,92.33
2023-01-10T02:11:25.463Z,93.97
2023-01-10T02:16:27.223Z,94.75
2023-01-10T02:21:43.936Z,96.23
2023-01-10T02:26:57.733Z,97.23
2023-01-10T02:32:42.066Z,97.10
2023-01-10T02:38:01.181Z,96.83
2023-01-10T02:43:20.891Z,96.69
2023-01-10T02:48:22.819Z,96.45
2023-01-10T02:53:29.644Z,96.37
2023-01-10T02:59:03.475Z,96.25
2023-01-10T03:04:22.273Z,94.52
2023-01-10T03:09:39.267Z,93.36
2023-01-10T03:14:42.723Z,93.00
2023-01-10T03:19:49.806Z,92.49
2023-01-10T03:24:54.152Z,92.34
2023-01-10T03:30:03.078Z,92.74
2023-01-10T03:35:06.227Z,93.69
2023-01-10T03:40:22.670Z,94.05
2023-01-10T03:45:33.884Z,94.54
2023-01-10T03:50:37.650Z,94.23
2023-01-10T03:55:42.216Z,93.70
2023-01-10T04:00:43.879Z,93.38
2023-01-10T04:05:45.701Z,92.90
2023-01-10T04:10:49.357Z,92.75
2023-01-10T04:15:51.551Z,92.02
2023-01-10T04:20:53.121Z,91.98
2023-01-10T04:25:54.740Z,92.37
2023-01-10T04:30:56.456Z,92.62
2023-01-10T04:35:58.144Z,92.57
2023-01-10T04:40:59.859Z,92.19
2023-01-10T04:46:01.535Z,91.85
2023-01-10T04:51:04.272Z,91.19
2023-01-10T04:56:08.350Z,90.91
2023-01-10T05:01:18.539Z,91.09
2023-01-10T05:06:20.729Z,90.89
2023-01-10T05:11:22.545Z,91.18
2023-01-10T05:16:25.515Z,91.02
2023-01-10T05:21:27.246Z,90.89
2023-01-10T05:26:28.828Z,90.53
2023-01-10T05:31:30.481Z,91.08
2023-01-10T05:36:32.228Z,91.46
2023-01-10T05:41:34.037Z,91.45
2023-01-10T05:46:36.737Z,91.29
2023-01-10T05:51:38.566Z,90.83
2023-01-10T05:56:40.581Z,90.99
2023-01-10T06:01:43.532Z,91.46
2023-01-10T06:06:45.209Z,92.56
2023-01-10T06:11:46.928Z,93.54
2023-01-10T06:16:49.503Z,93.42
2023-01-10T06:21:51.172Z,93.69
2023-01-10T06:26:52.868Z,92.86
2023-01-10T06:31:54.534Z,93.24
2023-01-10T06:36:56.214Z,93.31
2023-01-10T06:41:57.789Z,94.14
2023-01-10T06:46:59.472Z,94.81
2023-01-10T06:52:01.203Z,94.70
2023-01-10T06:57:02.800Z,94.90
2023-01-10T07:02:04.533Z,94.80
2023-01-10T07:07:06.448Z,94.42
2023-01-10T07:12:08.024Z,94.07
2023-01-10T07:17:09.862Z,94.35
2023-01-10T07:22:14.649Z,95.06
2023-01-10T07:27:17.326Z,95.11
2023-01-10T07:32:18.997Z,95.67
2023-01-10T07:37:20.640Z,96.54
2023-01-10T07:42:22.340Z,96.99
2023-01-10T07:47:25.034Z,97.81
2023-01-10T07:52:26.710Z,98.25
2023-01-10T07:57:28.349Z,98.21
2023-01-10T08:02:30.138Z,98.52
2023-01-10T08:07:32.070Z,98.19
2023-01-10T08:12:34.747Z,97.80
2023-01-10T08:17:36.903Z,97.21
2023-01-10T08:22:38.680Z,97.02
2023-01-10T08:27:40.287Z,97.02
2023-01-10T08:32:42.015Z,97.00
2023-01-10T08:37:44.297Z,96.77
2023-01-10T08:42:45.968Z,96.65
2023-01-10T08:47:47.651Z,97.45
2023-01-10T08:52:49.374Z,96.66
2023-01-10T08:57:50.999Z,96.74
2023-01-10T09:02:52.788Z,96.20
2023-01-10T09:08:00.389Z,96.13
2023-01-10T09:13:05.037Z,96.05
2023-01-10T09:18:07.844Z,95.79
2023-01-10T09:23:19.031Z,96.55
2023-01-10T09:28:22.502Z,96.77
2023-01-10T09:33:25.296Z,97.09
2023-01-10T09:38:28.196Z,97.26
2023-01-10T09:43:54.789Z,97.47
2023-01-10T09:49:21.106Z,98.08
2023-01-10T09:54:29.621Z,97.94
2023-01-10T09:59:37.680Z,97.86
2023-01-10T10:04:40.934Z,97.73
2023-01-10T10:09:43.715Z,97.47
2023-01-10T10:14:57.555Z,97.49
2023-01-10T10:20:17.637Z,96.93
2023-01-10T10:25:37.284Z,96.78
2023-01-10T10:30:57.361Z,97.39
2023-01-10T10:36:08.774Z,97.61
2023-01-10T10:41:25.770Z,97.25
2023-01-10T10:46:27.557Z,97.33
2023-01-10T10:51:48.082Z,97.15
2023-01-10T10:56:52.963Z,96.88
2023-01-10T11:01:55.834Z,96.05
2023-01-10T11:06:57.576Z,95.58
2023-01-10T11:11:59.477Z,95.99
2023-01-10T11:17:22.485Z,95.41
2023-01-10T11:22:25.580Z,94.77
2023-01-10T11:27:36.050Z,94.25
2023-01-10T11:32:48.255Z,94.12
2023-01-10T11:38:01.923Z,94.44
2023-01-10T11:43:24.925Z,93.79
2023-01-10T11:48:56.332Z,93.46
2023-01-10T11:53:59.190Z,92.97
2023-01-10T11:59:12.738Z,93.21
2023-01-10T12:04:18.550Z,93.46
2023-01-10T12:09:45.127Z,93.25
2023-01-10T12:14:47.911Z,93.57
2023-01-10T12:19:53.393Z,93.79
2023-01-10T12:24:57.122Z,93.68
2023-01-10T12:30:04.602Z,93.71
2023-01-10T12:35:45.364Z,93.67
2023-01-10T12:40:52.986Z,93.22
2023-01-10T12:46:12.749Z,94.03
2023-01-10T12:51:28.146Z,93.92
2023-01-10T12:56:30.537Z,94.00
2023-01-10T13:01:36.117Z,94.03
2023-01-10T13:06:41.004Z,94.34
2023-01-10T13:11:50.744Z,94.61
2023-01-10T13:17:03.572Z,95.19
2023-01-10T13:22:22.849Z,95.37
2023-01-10T13:27:28.960Z,96.78
2023-01-10T13:32:34.977Z,97.84
2023-01-10T13:37:39.933Z,99.70
2023-01-10T13:43:00.243Z,100.00
2023-01-10T13:48:03.758Z,100.00
2023-01-10T13:53:08.709Z,100.00
2023-01-10T13:58:21.173Z,100.00
2023-01-10T14:03:44.739Z,100.00
2023-01-10T14:08:55.079Z,100.00
2023-01-10T14:14:00.588Z,100.00
2023-01-10T14:19:05.636Z,100.00
2023-01-10T14:24:27.133Z,100.00
2023-01-10T14:29:32.601Z,100.00
2023-01-10T14:34:37.155Z,100.00
2023-01-10T14:39:42.574Z,100.00
2023-01-10T14:44:51.252Z,100.00
2023-01-10T14:49:52.840Z,100.00
2023-01-10T14:55:16.822Z,100.00
2023-01-10T15:00:20.486Z,100.00
2023-01-10T15:05:27.845Z,100.00
2023-01-10T15:10:41.964Z,100.00
2023-01-10T15:15:47.204Z,100.00
2023-01-10T15:20:49.414Z,100.00
2023-01-10T15:25:59.035Z,100.00
2023-01-10T15:31:00.858Z,100.00
2023-01-10T15:36:08.394Z,100.00
2023-01-10T15:41:16.429Z,100.00
2023-01-10T15:46:24.064Z,100.00
2023-01-10T15:51:33.356Z,100.00
2023-01-10T15:56:42.219Z,100.00
2023-01-10T16:01:53.962Z,100.00
2023-01-10T16:07:07.689Z,100.00
2023-01-10T16:12:46.342Z,100.00
2023-01-10T16:17:49.203Z,100.00
2023-01-10T16:22:51.009Z,100.00
2023-01-10T16:27:56.281Z,100.00
2023-01-10T16:33:00.805Z,100.00
2023-01-10T16:38:03.859Z,100.00
2023-01-10T16:43:34.692Z,100.00
2023-01-10T16:48:36.505Z,100.00
2023-01-10T16:53:38.215Z,100.00
2023-01-10T16:58:39.987Z,100.00
2023-01-10T17:03:42.382Z,100.00
2023-01-10T17:08:45.200Z,100.00
2023-01-10T17:13:47.571Z,100.00
2023-01-10T17:18:49.388Z,100.00
2023-01-10T17:23:51.490Z,100.00
2023-01-10T17:28:53.295Z,100.00
2023-01-10T17:33:55.022Z,100.00
2023-01-10T17:38:57.113Z,100.00
2023-01-10T17:43:58.860Z,100.00
2023-01-10T17:49:02.558Z,100.00
2023-01-10T17:54:04.614Z,100.00
2023-01-10T17:59:06.765Z,100.00
2023-01-10T18:04:08.816Z,100.00
2023-01-10T18:09:11.004Z,100.00
2023-01-10T18:14:31.376Z,100.00
2023-01-10T18:19:33.484Z,100.00
2023-01-10T18:24:35.227Z,100.00
2023-01-10T18:29:37.092Z,100.00
2023-01-10T18:34:38.768Z,100.00
2023-01-10T18:39:40.600Z,100.00
2023-01-10T18:45:03.469Z,100.00
2023-01-10T18:50:05.699Z,100.00
2023-01-10T18:55:08.225Z,100.00
2023-01-10T19:00:11.089Z,100.00
2023-01-10T19:05:14.262Z,100.00
2023-01-10T19:10:17.205Z,100.00
2023-01-10T19:15:19.002Z,100.00
2023-01-10T19:20:20.739Z,100.00
2023-01-10T19:25:22.887Z,100.00
2023-01-10T19:30:24.563Z,100.00
2023-01-10T19:35:26.404Z,100.00
2023-01-10T19:40:53.334Z,100.00
2023-01-10T19:45:56.921Z,100.00
2023-01-10T19:51:05.047Z,100.00
2023-01-10T19:56:10.357Z,100.00
2023-01-10T20:01:15.471Z,100.00
2023-01-10T20:06:37.106Z,100.00
2023-01-10T20:11:40.438Z,100.00
2023-01-10T20:16:42.975Z,100.00
2023-01-10T20:21:44.935Z,100.00
2023-01-10T20:26:48.455Z,100.00
2023-01-10T20:31:53.078Z,100.00
2023-01-10T20:36:55.285Z,100.00
2023-01-10T20:41:57.714Z,100.00
2023-01-10T20:46:59.550Z,100.00
2023-01-10T20:52:01.299Z,100.00
2023-01-10T20:57:03.182Z,100.00
2023-01-10T21:02:04.987Z,100.00
2023-01-10T21:07:06.974Z,100.00
2023-01-10T21:12:22.189Z,100.00
2023-01-10T21:17:24.814Z,100.00
2023-01-10T21:22:28.270Z,100.00
2023-01-10T21:27:32.834Z,100.00
2023-01-10T21:32:34.582Z,100.00
2023-01-10T21:37:36.322Z,100.00
2023-01-10T21:42:44.704Z,100.00
2023-01-10T21:47:46.850Z,100.00
2023-01-10T21:52:48.546Z,100.00
2023-01-10T21:57:50.425Z,100.00
2023-01-10T22:02:52.314Z,100.00
2023-01-10T22:07:56.119Z,100.00
2023-01-10T22:12:57.863Z,100.00
2023-01-10T22:18:03.441Z,100.00
2023-01-10T22:23:28.137Z,100.00
2023-01-10T22:28:35.544Z,100.00
2023-01-10T22:33:38.320Z,100.00
2023-01-10T22:38:41.709Z,100.00
2023-01-10T22:43:44.462Z,100.00
2023-01-10T22:48:46.671Z,100.00
2023-01-10T22:53:53.662Z,100.00
2023-01-10T22:58:55.448Z,100.00
2023-01-10T23:03:57.256Z,100.00
2023-01-10T23:08:59.624Z,100.00
2023-01-10T23:14:01.486Z,100.00
2023-01-10T23:19:03.458Z,100.00
2023-01-10T23:24:05.536Z,100.00
2023-01-10T23:29:07.312Z,100.00
2023-01-10T23:34:09.131Z,100.00
2023-01-10T23:39:10.953Z,100.00
2023-01-10T23:44:12.842Z,100.00
2023-01-10T23:49:14.704Z,100.00
2023-01-10T23:54:17.413Z,100.00
2023-01-10T23:59:22.871Z,100.00
